Time;durP1;ratioP1;P1;durP2;ratioP2;P2;SDS_P1;SDS_P2;PMS_P1;PMS_P2;Temp;Humidity;BMP_temperature;BMP_pressure;BME280_temperature;BME280_humidity;BME280_pressure;Samples;Min_cycle;Max_cycle;Signal;HPM_P1;HPM_P2
2022/11/14 00:01:53;;;;;;;33.83;20.77;;;;;;;2.35;100.00;97077.41;10450131;28;20196;-76
2022/11/14 00:07:13;;;;;;;43.43;21.90;;;;;;;2.65;100.00;97075.47;10449089;28;20195;-76
2022/11/14 00:12:33;;;;;;;36.73;21.13;;;;;;;2.66;100.00;97069.38;10449046;28;20228;-76
2022/11/14 00:17:52;;;;;;;33.23;19.77;;;;;;;2.81;100.00;97075.31;10455483;28;20223;-76
2022/11/14 00:23:11;;;;;;;34.20;20.50;;;;;;;3.21;100.00;97051.97;10456845;28;20200;-76
2022/11/14 00:28:30;;;;;;;31.10;19.10;;;;;;;3.44;100.00;97044.44;10457711;28;20211;-76
2022/11/14 00:33:49;;;;;;;30.73;18.73;;;;;;;2.85;100.00;97037.13;10456444;28;20199;-76
2022/11/14 00:39:12;;;;;;;26.90;17.00;;;;;;;3.29;100.00;97020.41;10456473;28;20231;-76
2022/11/14 00:44:30;;;;;;;26.90;16.87;;;;;;;3.17;100.00;97014.28;10455569;28;20270;-76
2022/11/14 00:49:49;;;;;;;28.03;16.40;;;;;;;3.64;100.00;97013.75;10455938;28;20219;-76
2022/11/14 00:55:08;;;;;;;21.33;13.83;;;;;;;4.57;100.00;97019.25;10455049;28;20196;-75
2022/11/14 01:00:27;;;;;;;16.57;10.03;;;;;;;5.40;100.00;96999.28;10456093;28;20187;-76
2022/11/14 01:05:48;;;;;;;23.80;14.70;;;;;;;5.51;100.00;96977.69;10454639;28;20196;-76
2022/11/14 01:11:14;;;;;;;21.57;11.93;;;;;;;5.90;100.00;96960.75;10455443;28;20680;-76
2022/11/14 01:16:34;;;;;;;16.20;9.40;;;;;;;6.07;100.00;96949.03;10454088;28;20519;-76
2022/11/14 01:21:53;;;;;;;20.63;13.40;;;;;;;6.07;100.00;96941.22;10439263;28;20195;-76
2022/11/14 01:27:12;;;;;;;17.90;13.03;;;;;;;5.95;100.00;96930.97;10453974;28;20703;-76
2022/11/14 01:32:31;;;;;;;21.00;10.47;;;;;;;6.22;100.00;96917.56;10454284;28;20224;-76
2022/11/14 01:37:50;;;;;;;21.60;14.50;;;;;;;6.15;100.00;96911.19;10453849;28;20243;-76
2022/11/14 01:43:15;;;;;;;17.80;11.53;;;;;;;6.07;100.00;96907.41;10453574;28;20652;-75
2022/11/14 01:48:45;;;;;;;19.97;13.17;;;;;;;6.05;100.00;96904.13;10453888;28;20592;-76
2022/11/14 01:54:21;;;;;;;19.60;11.53;;;;;;;5.94;100.00;96892.91;10438179;28;20196;-76
2022/11/14 01:59:42;;;;;;;20.97;12.73;;;;;;;5.98;100.00;96887.34;10446502;28;20192;-76
2022/11/14 02:05:07;;;;;;;17.63;12.40;;;;;;;6.03;100.00;96874.84;10437289;28;20192;-76
2022/11/14 02:10:26;;;;;;;27.80;11.53;;;;;;;6.06;100.00;96864.19;10423665;28;20232;-76
2022/11/14 02:15:45;;;;;;;19.57;12.57;;;;;;;5.96;100.00;96868.44;10451909;28;20204;-76
2022/11/14 02:21:04;;;;;;;24.73;13.53;;;;;;;6.04;100.00;96866.06;10451806;28;20196;-76
2022/11/14 02:26:23;;;;;;;16.87;10.37;;;;;;;6.07;100.00;96854.59;10452009;28;20565;-76
2022/11/14 02:31:41;;;;;;;15.60;9.73;;;;;;;6.07;100.00;96865.00;10452054;28;20231;-76
2022/11/14 02:37:00;;;;;;;21.33;12.27;;;;;;;6.04;100.00;96853.06;10450731;28;20243;-77
2022/11/14 02:42:19;;;;;;;18.87;11.73;;;;;;;6.01;100.00;96855.09;10451724;28;20196;-76
2022/11/14 02:47:38;;;;;;;22.40;13.93;;;;;;;6.05;100.00;96841.72;10451033;28;20712;-76
2022/11/14 02:52:57;;;;;;;20.77;12.20;;;;;;;5.85;100.00;96837.25;10451039;28;20558;-76
2022/11/14 02:58:16;;;;;;;21.67;14.67;;;;;;;5.69;100.00;96820.28;10451052;28;20661;-75
2022/11/14 03:03:35;;;;;;;20.90;12.80;;;;;;;5.83;100.00;96819.19;10450104;28;20188;-76
2022/11/14 03:08:54;;;;;;;18.60;13.63;;;;;;;5.99;100.00;96818.81;10369146;28;20217;-76
2022/11/14 03:14:13;;;;;;;23.50;15.53;;;;;;;5.90;100.00;96817.75;10367644;28;20224;-76
2022/11/14 03:19:32;;;;;;;22.53;14.90;;;;;;;5.90;100.00;96827.31;10374142;28;20650;-76
2022/11/14 03:24:51;;;;;;;23.27;12.47;;;;;;;5.93;100.00;96821.88;10408197;28;20644;-76
2022/11/14 03:30:10;;;;;;;19.63;11.53;;;;;;;6.03;100.00;96828.03;10408733;28;20228;-75
2022/11/14 03:35:29;;;;;;;20.67;13.70;;;;;;;5.88;100.00;96835.25;10407876;28;20220;-75
2022/11/14 03:40:49;;;;;;;22.17;13.67;;;;;;;5.70;100.00;96821.97;10409216;28;20196;-75
2022/11/14 03:46:08;;;;;;;25.00;15.00;;;;;;;5.60;100.00;96833.22;10407544;28;20193;-75
2022/11/14 03:51:27;;;;;;;23.87;16.60;;;;;;;5.81;100.00;96821.09;10393301;28;20259;-75
2022/11/14 03:56:46;;;;;;;21.10;13.10;;;;;;;5.87;100.00;96807.59;10407485;28;20192;-75
2022/11/14 04:02:05;;;;;;;15.93;10.53;;;;;;;5.91;100.00;96813.34;10406483;28;20268;-75
2022/11/14 04:07:23;;;;;;;23.90;14.87;;;;;;;5.91;100.00;96800.34;10402549;28;20556;-76
2022/11/14 04:12:47;;;;;;;21.80;14.10;;;;;;;5.85;100.00;96772.25;10398866;28;20307;-76
2022/11/14 04:18:06;;;;;;;16.57;10.37;;;;;;;5.92;100.00;96759.59;10400141;28;20200;-75
2022/11/14 04:23:25;;;;;;;20.17;12.30;;;;;;;6.40;100.00;96746.91;10400603;28;20232;-75
2022/11/14 04:28:44;;;;;;;18.20;11.93;;;;;;;6.40;100.00;96754.72;10399966;28;20232;-75
2022/11/14 04:34:03;;;;;;;15.60;9.40;;;;;;;6.48;100.00;96756.69;10399875;28;20201;-75
2022/11/14 04:39:22;;;;;;;17.60;12.10;;;;;;;6.40;100.00;96746.91;10398226;28;20224;-75
2022/11/14 04:44:41;;;;;;;15.77;10.80;;;;;;;6.35;100.00;96750.84;10399023;28;20208;-75
2022/11/14 04:50:00;;;;;;;25.03;15.67;;;;;;;6.19;100.00;96748.72;10400177;28;20217;-75
2022/11/14 04:55:19;;;;;;;19.23;13.13;;;;;;;6.14;100.00;96753.47;10384235;28;20583;-76
2022/11/14 05:00:38;;;;;;;18.63;14.63;;;;;;;6.12;100.00;96752.78;10400485;28;20193;-75
2022/11/14 05:06:00;;;;;;;20.57;12.57;;;;;;;6.03;100.00;96769.97;10412665;28;20271;-75
2022/11/14 05:11:19;;;;;;;24.33;16.03;;;;;;;5.83;100.00;96768.97;10423732;28;20216;-75
2022/11/14 05:16:38;;;;;;;16.63;9.13;;;;;;;5.82;100.00;96757.75;10412079;28;20243;-76
2022/11/14 05:21:57;;;;;;;18.67;10.73;;;;;;;5.72;100.00;96757.66;10413058;28;20609;-76
2022/11/14 05:27:16;;;;;;;28.27;16.37;;;;;;;5.42;100.00;96750.59;10412726;28;20564;-75
2022/11/14 05:32:34;;;;;;;18.27;10.43;;;;;;;5.48;100.00;96744.06;10413164;28;20236;-76
2022/11/14 05:37:54;;;;;;;21.93;14.00;;;;;;;5.60;100.00;96737.06;10412866;28;20318;-75
2022/11/14 05:43:12;;;;;;;20.27;13.43;;;;;;;5.91;100.00;96740.56;10412736;28;20188;-75
2022/11/14 05:48:32;;;;;;;20.80;13.70;;;;;;;5.97;100.00;96740.13;10412834;28;20224;-76
2022/11/14 05:53:51;;;;;;;22.73;16.13;;;;;;;5.91;100.00;96758.75;10412594;28;20196;-75
2022/11/14 05:59:10;;;;;;;19.77;14.23;;;;;;;5.77;100.00;96774.69;10412350;28;20192;-76
2022/11/14 06:04:29;;;;;;;22.63;13.77;;;;;;;5.71;100.00;96782.03;10412363;28;20196;-75
2022/11/14 06:09:48;;;;;;;20.17;13.07;;;;;;;5.79;100.00;96788.34;10412302;28;20228;-76
2022/11/14 06:15:07;;;;;;;24.20;15.03;;;;;;;5.82;100.00;96788.09;10410767;28;20220;-74
2022/11/14 06:20:26;;;;;;;23.67;14.50;;;;;;;5.78;100.00;96795.34;10411227;28;20201;-76
2022/11/14 06:25:45;;;;;;;17.73;11.13;;;;;;;5.91;100.00;96784.75;10410862;28;20560;-76
2022/11/14 06:31:04;;;;;;;24.40;15.83;;;;;;;5.84;100.00;96783.63;10410610;28;20225;-76
2022/11/14 06:36:23;;;;;;;26.60;16.90;;;;;;;5.89;100.00;96795.28;10410584;28;20235;-76
2022/11/14 06:41:42;;;;;;;17.90;10.30;;;;;;;5.92;100.00;96799.41;10410107;28;20193;-74
2022/11/14 06:47:01;;;;;;;20.43;11.47;;;;;;;6.07;100.00;96800.78;10410164;28;20197;-76
2022/11/14 06:52:21;;;;;;;16.13;10.80;;;;;;;5.98;100.00;96801.53;10409806;28;20297;-73
2022/11/14 06:57:39;;;;;;;25.90;16.73;;;;;;;5.91;100.00;96808.16;10409762;28;20193;-76
2022/11/14 07:02:58;;;;;;;27.03;17.57;;;;;;;5.94;100.00;96820.09;10409524;28;20224;-75
2022/11/14 07:08:17;;;;;;;27.20;18.07;;;;;;;5.92;100.00;96811.59;10408574;28;20192;-75
2022/11/14 07:13:37;;;;;;;27.17;17.83;;;;;;;5.88;100.00;96827.44;10373449;28;20616;-76
2022/11/14 07:18:57;;;;;;;24.07;15.07;;;;;;;5.98;100.00;96814.53;10339537;28;20646;-76
2022/11/14 07:24:16;;;;;;;26.77;18.43;;;;;;;6.01;100.00;96808.28;10366815;28;20589;-75
2022/11/14 07:29:35;;;;;;;25.07;16.77;;;;;;;6.02;100.00;96815.16;10367999;28;20221;-76
2022/11/14 07:34:53;;;;;;;22.33;12.93;;;;;;;6.02;100.00;96815.97;10367929;28;20197;-75
2022/11/14 07:40:12;;;;;;;21.30;13.87;;;;;;;5.94;100.00;96831.34;10375781;28;20604;-76
2022/11/14 07:45:31;;;;;;;31.73;18.33;;;;;;;5.82;100.00;96825.34;10408136;28;20196;-76
2022/11/14 07:50:50;;;;;;;34.30;21.27;;;;;;;5.93;100.00;96813.25;10408442;28;20311;-76
2022/11/14 07:56:09;;;;;;;34.20;20.77;;;;;;;5.93;100.00;96826.25;10407742;28;20196;-76
2022/11/14 08:01:29;;;;;;;32.97;18.23;;;;;;;6.02;100.00;96817.75;10408927;28;20649;-75
2022/11/14 08:06:47;;;;;;;26.37;18.47;;;;;;;6.27;100.00;96824.34;10404401;28;20272;-76
2022/11/14 08:12:07;;;;;;;27.43;16.97;;;;;;;6.78;100.00;96835.72;10391454;28;20220;-76
2022/11/14 08:17:25;;;;;;;24.43;14.30;;;;;;;6.92;100.00;96835.41;10390749;28;20204;-75
2022/11/14 08:22:44;;;;;;;23.27;16.40;;;;;;;6.83;100.00;96848.34;10406603;28;20192;-76
2022/11/14 08:28:03;;;;;;;19.43;14.50;;;;;;;7.08;100.00;96836.69;10429730;28;20495;-75
2022/11/14 08:33:22;;;;;;;22.97;15.10;;;;;;;6.78;100.00;96840.94;10430650;28;20200;-75
2022/11/14 08:38:41;;;;;;;23.00;15.13;;;;;;;6.67;100.00;96848.81;10452229;28;20231;-76
2022/11/14 08:44:00;;;;;;;21.10;9.40;;;;;;;6.45;100.00;96844.56;10453579;28;20200;-75
2022/11/14 08:49:19;;;;;;;23.93;13.80;;;;;;;6.35;100.00;96847.94;10451414;28;20223;-76
2022/11/14 08:54:38;;;;;;;20.67;11.40;;;;;;;6.21;100.00;96851.69;10431128;28;20290;-76
2022/11/14 08:59:58;;;;;;;27.70;16.10;;;;;;;6.22;100.00;96850.75;10455832;28;20601;-76
2022/11/14 09:05:17;;;;;;;22.03;13.60;;;;;;;6.21;100.00;96856.06;10411381;28;20573;-76
2022/11/14 09:10:36;;;;;;;16.40;9.27;;;;;;;6.42;100.00;96836.06;10406199;28;20255;-76
2022/11/14 09:15:55;;;;;;;26.67;15.40;;;;;;;6.45;100.00;96836.75;10395770;28;20192;-76
2022/11/14 09:21:14;;;;;;;26.73;15.13;;;;;;;6.77;100.00;96834.91;10409978;28;20271;-75
2022/11/14 09:26:33;;;;;;;24.53;16.93;;;;;;;6.75;100.00;96829.03;10410854;28;20650;-76
2022/11/14 09:31:53;;;;;;;24.87;15.13;;;;;;;6.86;100.00;96815.09;10410653;28;20307;-74
2022/11/14 09:37:12;;;;;;;25.67;18.30;;;;;;;7.21;100.00;96805.19;10409105;28;20244;-74
2022/11/14 09:42:52;;;;;;;24.50;16.73;;;;;;;7.27;100.00;96789.84;10411792;28;20267;-74
2022/11/14 09:48:18;;;;;;;24.90;15.43;;;;;;;7.62;100.00;96811.16;10410019;28;20204;-74
2022/11/14 09:53:58;;;;;;;22.63;15.17;;;;;;;7.76;100.00;96787.28;10399895;28;20275;-73
2022/11/14 09:59:17;;;;;;;23.63;15.83;;;;;;;7.60;100.00;96792.25;10396714;28;20645;-74
2022/11/14 10:04:39;;;;;;;25.50;17.07;;;;;;;7.47;100.00;96793.31;10409623;28;20196;-74
2022/11/14 10:10:17;;;;;;;21.53;14.73;;;;;;;8.21;100.00;96797.16;10411850;28;20255;-74
2022/11/14 10:15:44;;;;;;;16.80;11.63;;;;;;;8.06;100.00;96787.28;10409301;28;20599;-74
2022/11/14 10:21:29;;;;;;;21.53;14.97;;;;;;;8.42;100.00;96751.75;10409235;28;20189;-76
2022/11/14 10:27:15;;;;;;;22.50;15.17;;;;;;;8.75;100.00;96734.78;10408116;28;20649;-76
2022/11/14 10:32:37;;;;;;;22.13;14.60;;;;;;;8.91;99.27;96726.34;10408943;28;20224;-76
2022/11/14 10:38:06;;;;;;;14.90;11.33;;;;;;;8.22;100.00;96745.78;10410273;28;20228;-75
2022/11/14 10:43:31;;;;;;;24.03;17.20;;;;;;;8.37;100.00;96748.78;10409968;28;20196;-75
2022/11/14 10:48:50;;;;;;;23.13;14.17;;;;;;;8.43;100.00;96729.94;10409564;28;20220;-76
2022/11/14 10:54:09;;;;;;;21.00;14.43;;;;;;;8.47;100.00;96739.16;10409869;28;20208;-76
2022/11/14 10:59:29;;;;;;;21.60;14.93;;;;;;;8.71;100.00;96714.31;10409170;28;20200;-76
2022/11/14 11:04:48;;;;;;;17.80;13.17;;;;;;;8.49;100.00;96708.50;10407517;28;20661;-76
2022/11/14 11:15:59;;;;;;;26.90;16.67;;;;;;;8.82;100.00;96729.81;10408049;28;20601;-77
2022/11/14 11:21:20;;;;;;;24.30;17.43;;;;;;;8.88;98.87;96705.72;10408445;28;20196;-76
2022/11/14 11:26:39;;;;;;;25.27;16.93;;;;;;;9.22;97.19;96686.81;10379505;28;20204;-78
2022/11/14 11:31:58;;;;;;;24.23;15.67;;;;;;;9.09;96.90;96679.31;10385609;28;20212;-77
2022/11/14 11:37:24;;;;;;;25.27;15.90;;;;;;;8.79;96.53;96674.41;10442054;28;20232;-77
2022/11/14 11:43:05;;;;;;;24.80;16.43;;;;;;;9.31;95.30;96665.94;10432784;28;20183;-78
2022/11/14 11:48:36;;;;;;;23.57;15.30;;;;;;;8.95;95.86;96660.72;10433413;28;20188;-78
2022/11/14 12:00:21;;;;;;;20.80;15.40;;;;;;;9.09;92.42;96650.56;10458829;28;20180;-77
2022/11/14 12:06:01;;;;;;;23.33;16.90;;;;;;;9.12;95.07;96667.75;10480065;28;20646;-58
2022/11/14 12:11:23;;;;;;;25.07;14.97;;;;;;;9.38;93.98;96656.53;10478925;28;20608;-59
2022/11/14 12:17:10;;;;;;;19.40;13.30;;;;;;;9.25;94.14;96665.59;10478688;28;20657;-57
2022/11/14 12:22:44;;;;;;;20.30;14.43;;;;;;;9.33;92.92;96648.34;10458512;28;20247;-59
2022/11/14 12:28:30;;;;;;;21.03;12.20;;;;;;;9.42;91.48;96635.19;10479582;28;20195;-55
2022/11/14 12:33:57;;;;;;;22.17;14.50;;;;;;;9.33;91.44;96643.94;10478049;28;20207;-55
2022/11/14 12:39:27;;;;;;;23.70;12.57;;;;;;;9.00;94.01;96654.06;10478398;28;20666;-59
2022/11/14 12:44:46;;;;;;;19.37;13.47;;;;;;;9.15;94.38;96650.94;10478002;28;20211;-56
2022/11/14 12:50:27;;;;;;;21.13;14.17;;;;;;;9.11;94.49;96642.56;10478815;28;20219;-57
2022/11/14 12:55:46;;;;;;;23.67;16.63;;;;;;;9.21;93.97;96637.28;10478348;28;20184;-56
2022/11/14 13:01:14;;;;;;;23.33;15.27;;;;;;;9.49;92.75;96640.63;10478372;28;20214;-58
2022/11/14 13:06:51;;;;;;;21.27;14.97;;;;;;;9.50;92.56;96625.75;10479623;28;20270;-61
2022/11/14 13:23:55;;;;;;;21.83;12.03;;;;;;;9.54;91.10;96614.84;10447781;28;20216;-55
2022/11/14 13:29:38;;;;;;;17.00;11.73;;;;;;;9.34;91.90;96611.59;10429207;28;20197;-55
2022/11/14 13:35:03;;;;;;;17.93;12.83;;;;;;;9.51;91.30;96609.94;10410721;28;20207;-57
2022/11/14 13:40:27;;;;;;;23.80;18.03;;;;;;;9.15;93.12;96615.19;10408321;28;20208;-62
2022/11/14 13:46:27;;;;;;;22.10;14.33;;;;;;;9.04;93.17;96611.00;10440900;28;20227;-60
2022/11/14 13:51:46;;;;;;;21.37;12.87;;;;;;;8.64;96.38;96633.13;10435348;28;20211;-62
2022/11/14 13:57:35;;;;;;;22.20;14.57;;;;;;;8.51;97.42;96625.63;10449348;28;20196;-62
2022/11/14 14:03:11;;;;;;;25.23;16.60;;;;;;;8.57;97.25;96629.44;10440503;28;20311;-62
2022/11/14 14:08:53;;;;;;;18.17;10.40;;;;;;;7.96;100.00;96643.81;10421906;28;20573;-61
2022/11/14 14:14:18;;;;;;;27.73;14.33;;;;;;;8.17;100.00;96648.84;10436321;28;20215;-61
2022/11/14 14:20:09;;;;;;;21.00;14.73;;;;;;;8.26;100.00;96628.91;10421859;28;20195;-59
2022/11/14 14:25:47;;;;;;;22.77;14.87;;;;;;;7.85;100.00;96629.97;10405547;28;20685;-60
2022/11/14 14:31:06;;;;;;;24.97;17.23;;;;;;;7.74;100.00;96634.56;10430010;28;20291;-62
2022/11/14 14:36:27;;;;;;;25.80;18.33;;;;;;;7.45;100.00;96641.44;10423394;28;20286;-60
2022/11/14 14:41:47;;;;;;;26.57;18.20;;;;;;;7.36;100.00;96644.06;10435491;28;20223;-62
2022/11/14 14:47:23;;;;;;;24.03;14.23;;;;;;;7.27;100.00;96640.50;10421147;28;20804;-60
2022/11/14 14:52:42;;;;;;;24.23;17.60;;;;;;;7.11;100.00;96628.03;10422113;28;20239;-61
2022/11/14 14:58:24;;;;;;;24.53;16.83;;;;;;;7.14;100.00;96628.56;10445933;28;20674;-62
2022/11/14 15:03:46;;;;;;;27.27;17.13;;;;;;;7.17;100.00;96609.25;10431662;28;20232;-62
2022/11/14 15:09:06;;;;;;;56.50;28.17;;;;;;;7.11;100.00;96608.00;10420654;28;20196;-60
2022/11/14 15:14:27;;;;;;;48.13;25.03;;;;;;;7.10;100.00;96615.94;10425669;28;20815;-62
2022/11/14 15:19:51;;;;;;;34.00;21.13;;;;;;;7.16;100.00;96606.78;10415740;28;20227;-64
2022/11/14 15:25:10;;;;;;;21.83;12.80;;;;;;;7.27;100.00;96604.00;10404449;28;20269;-59
2022/11/14 15:30:33;;;;;;;24.77;16.00;;;;;;;7.22;100.00;96595.81;10404047;28;20706;-62
2022/11/14 15:36:09;;;;;;;24.43;15.87;;;;;;;6.89;100.00;96610.84;10404856;28;20201;-60
2022/11/14 15:41:31;;;;;;;26.63;19.07;;;;;;;6.70;100.00;96622.91;10405087;28;20225;-61
2022/11/14 15:46:51;;;;;;;25.97;15.80;;;;;;;6.83;100.00;96625.25;10403953;28;20235;-60
2022/11/14 15:52:19;;;;;;;23.83;14.43;;;;;;;6.74;100.00;96634.69;10425342;28;20658;-60
2022/11/14 15:57:38;;;;;;;29.60;17.80;;;;;;;6.65;100.00;96645.09;10445668;28;20188;-60
2022/11/14 16:02:57;;;;;;;24.90;18.67;;;;;;;6.65;100.00;96645.09;10443004;28;20266;-61
2022/11/14 16:08:16;;;;;;;28.07;18.57;;;;;;;6.61;100.00;96639.31;10441099;28;20913;-60
2022/11/14 16:13:35;;;;;;;26.57;17.03;;;;;;;6.63;100.00;96627.03;10422210;28;20208;-60
2022/11/14 16:18:54;;;;;;;31.60;18.60;;;;;;;6.67;100.00;96630.97;10419634;28;20235;-62
2022/11/14 16:24:18;;;;;;;33.33;22.63;;;;;;;6.55;100.00;96634.66;10426163;28;20232;-61
2022/11/14 16:29:37;;;;;;;32.00;21.30;;;;;;;6.53;100.00;96631.38;10443722;28;20200;-58
2022/11/14 16:34:56;;;;;;;32.93;20.73;;;;;;;6.38;100.00;96629.13;10444564;28;20275;-60
2022/11/14 16:40:28;;;;;;;34.23;21.93;;;;;;;6.27;100.00;96631.84;10444065;28;20212;-60
2022/11/14 16:45:47;;;;;;;34.40;22.10;;;;;;;6.17;100.00;96628.38;10402518;28;20651;-59
2022/11/14 16:51:06;;;;;;;38.90;24.23;;;;;;;6.23;100.00;96633.03;10422884;28;20215;-61
2022/11/14 16:56:25;;;;;;;37.10;22.00;;;;;;;6.35;100.00;96618.97;10451595;28;20275;-61
2022/11/14 17:01:44;;;;;;;35.03;22.23;;;;;;;6.33;100.00;96636.50;10452815;28;20227;-60
2022/11/14 17:07:03;;;;;;;35.00;24.80;;;;;;;6.40;100.00;96616.81;10451296;28;20188;-60
2022/11/14 17:12:22;;;;;;;41.60;23.37;;;;;;;6.39;100.00;96616.94;10454014;28;20216;-60
2022/11/14 17:17:48;;;;;;;36.57;22.40;;;;;;;6.35;100.00;96624.19;10454472;28;20188;-60
2022/11/14 17:23:08;;;;;;;32.07;20.60;;;;;;;6.28;100.00;96617.03;10453696;28;20311;-60
2022/11/14 17:28:26;;;;;;;36.63;23.63;;;;;;;6.45;100.00;96602.56;10453430;28;20302;-61
2022/11/14 17:33:51;;;;;;;33.80;20.97;;;;;;;6.55;100.00;96608.63;10452694;28;20665;-61
2022/11/14 17:39:10;;;;;;;37.23;21.53;;;;;;;6.55;100.00;96599.03;10452949;28;20200;-61
2022/11/14 17:44:29;;;;;;;43.57;27.00;;;;;;;6.46;100.00;96594.63;10452393;28;20318;-60
2022/11/14 17:49:47;;;;;;;37.23;25.03;;;;;;;6.31;100.00;96601.16;10452564;28;20207;-61
2022/11/14 17:55:07;;;;;;;35.00;23.67;;;;;;;6.54;100.00;96604.38;10452019;28;20267;-62
2022/11/14 18:00:26;;;;;;;41.23;26.47;;;;;;;6.16;100.00;96598.94;10451609;28;20243;-62
2022/11/14 18:05:45;;;;;;;37.97;24.37;;;;;;;5.83;100.00;96603.41;10451864;28;20244;-61
2022/11/14 18:11:06;;;;;;;37.77;23.00;;;;;;;6.41;100.00;96615.03;10451828;28;21223;-60
2022/11/14 18:16:25;;;;;;;43.13;27.67;;;;;;;6.88;100.00;96609.25;10451775;28;20197;-61
2022/11/14 18:21:44;;;;;;;46.07;26.87;;;;;;;6.90;100.00;96597.72;10451107;28;20331;-61
2022/11/14 18:27:03;;;;;;;44.73;29.47;;;;;;;6.94;100.00;96580.03;10452159;28;20195;-60
2022/11/14 18:32:22;;;;;;;46.47;32.27;;;;;;;6.89;100.00;96588.28;10447310;28;20216;-61
2022/11/14 18:37:41;;;;;;;43.93;28.10;;;;;;;6.94;100.00;96593.06;10451273;28;20219;-59
2022/11/14 18:43:00;;;;;;;36.43;21.70;;;;;;;7.01;100.00;96595.94;10450060;28;20216;-62
2022/11/14 18:48:19;;;;;;;40.03;27.03;;;;;;;6.99;100.00;96585.66;10422123;28;20204;-61
2022/11/14 18:53:38;;;;;;;41.20;25.47;;;;;;;7.16;100.00;96578.13;10409565;28;20212;-61
2022/11/14 18:58:57;;;;;;;36.93;25.37;;;;;;;7.20;100.00;96569.03;10449798;28;20192;-60
2022/11/14 19:04:18;;;;;;;24.23;15.73;;;;;;;7.36;100.00;96566.69;10449104;28;20231;-61
2022/11/14 19:09:38;;;;;;;34.33;22.07;;;;;;;7.26;100.00;96558.91;10449674;28;20195;-61
2022/11/14 19:14:56;;;;;;;27.53;18.23;;;;;;;7.31;100.00;96568.91;10448710;28;20797;-61
2022/11/14 19:20:16;;;;;;;24.80;13.30;;;;;;;7.29;100.00;96563.03;10449160;28;20587;-61
2022/11/14 19:25:34;;;;;;;31.40;17.90;;;;;;;7.38;100.00;96553.53;10448251;28;20741;-59
2022/11/14 19:30:59;;;;;;;21.90;12.47;;;;;;;7.40;100.00;96549.00;10447038;28;20207;-61
2022/11/14 19:36:20;;;;;;;30.17;19.30;;;;;;;7.35;100.00;96548.59;10447476;28;20556;-59
2022/11/14 19:41:39;;;;;;;28.70;16.70;;;;;;;7.32;100.00;96552.31;10447055;28;20219;-61
2022/11/14 19:46:58;;;;;;;32.60;18.60;;;;;;;7.30;100.00;96541.19;10446816;28;20196;-60
2022/11/14 19:52:17;;;;;;;30.57;20.43;;;;;;;7.38;100.00;96543.09;10446797;28;20211;-60
2022/11/14 19:57:36;;;;;;;31.60;18.00;;;;;;;7.56;100.00;96535.38;10446671;28;20228;-60
2022/11/14 20:02:55;;;;;;;26.70;17.37;;;;;;;7.77;100.00;96543.81;10445809;28;20657;-61
2022/11/14 20:08:14;;;;;;;29.73;18.47;;;;;;;7.78;100.00;96536.81;10446886;28;20187;-61
2022/11/14 20:13:38;;;;;;;30.20;17.87;;;;;;;7.63;100.00;96533.84;10445908;28;20207;-61
2022/11/14 20:18:59;;;;;;;28.23;14.87;;;;;;;7.74;100.00;96525.84;10446715;28;20677;-61
2022/11/14 20:24:21;;;;;;;29.37;16.53;;;;;;;7.74;100.00;96525.03;10448343;28;20769;-60
2022/11/14 20:29:40;;;;;;;23.17;14.87;;;;;;;7.61;100.00;96527.94;10454654;28;20600;-61
2022/11/14 20:34:59;;;;;;;31.67;20.43;;;;;;;7.39;100.00;96526.50;10454242;28;20204;-61
2022/11/14 20:40:19;;;;;;;32.97;21.20;;;;;;;7.39;100.00;96521.31;10454637;28;20239;-59
2022/11/14 20:45:38;;;;;;;33.57;20.13;;;;;;;7.47;100.00;96530.06;10453808;28;20223;-61
2022/11/14 20:51:19;;;;;;;31.17;19.47;;;;;;;7.50;100.00;96537.59;10453862;28;20235;-61
2022/11/14 20:56:38;;;;;;;31.87;21.77;;;;;;;7.42;100.00;96536.66;10453409;28;20674;-61
2022/11/14 21:01:57;;;;;;;34.03;21.93;;;;;;;7.42;100.00;96532.25;10452654;28;20710;-60
2022/11/14 21:07:16;;;;;;;29.80;17.37;;;;;;;7.39;100.00;96527.31;10452623;28;20204;-61
2022/11/14 21:12:35;;;;;;;35.63;21.40;;;;;;;7.34;100.00;96526.13;10451916;28;20211;-60
2022/11/14 21:17:54;;;;;;;30.83;17.60;;;;;;;7.27;100.00;96536.25;10453002;28;20215;-61
2022/11/14 21:23:13;;;;;;;41.20;24.47;;;;;;;7.20;100.00;96550.81;10451362;28;20253;-61
2022/11/14 21:28:34;;;;;;;41.03;25.73;;;;;;;7.03;100.00;96568.81;10452134;28;20216;-60
2022/11/14 21:33:55;;;;;;;42.90;26.53;;;;;;;7.03;100.00;96570.56;10451138;28;20588;-61
2022/11/14 21:39:14;;;;;;;45.90;28.17;;;;;;;7.08;100.00;96564.00;10452194;28;20203;-61
2022/11/14 21:44:33;;;;;;;36.93;19.10;;;;;;;7.16;100.00;96560.69;10452725;28;20228;-61
2022/11/14 21:49:54;;;;;;;31.20;19.00;;;;;;;7.21;100.00;96548.06;10452869;28;20216;-60
2022/11/14 21:55:14;;;;;;;34.53;19.83;;;;;;;7.19;100.00;96534.38;10452350;28;20219;-61
2022/11/14 22:00:32;;;;;;;37.63;23.17;;;;;;;7.14;100.00;96542.59;10451520;28;20298;-61
2022/11/14 22:05:56;;;;;;;36.87;25.03;;;;;;;7.08;100.00;96542.34;10451272;28;20739;-60
2022/11/14 22:11:14;;;;;;;43.57;28.07;;;;;;;7.03;100.00;96550.56;10451147;28;20251;-60
2022/11/14 22:16:34;;;;;;;37.57;24.07;;;;;;;7.18;100.00;96542.31;10451994;28;20282;-61
2022/11/14 22:21:53;;;;;;;31.43;19.00;;;;;;;7.08;100.00;96555.38;10451063;28;20311;-61
2022/11/14 22:27:12;;;;;;;34.40;21.03;;;;;;;7.05;100.00;96543.44;10451508;28;20188;-60
2022/11/14 22:32:31;;;;;;;42.53;25.07;;;;;;;7.09;100.00;96551.78;10450592;28;20212;-61
2022/11/14 22:37:50;;;;;;;38.43;25.50;;;;;;;6.96;100.00;96549.47;10450495;28;20203;-60
2022/11/14 22:43:08;;;;;;;38.73;24.87;;;;;;;7.08;100.00;96530.13;10450713;28;20219;-60
2022/11/14 22:48:30;;;;;;;40.07;23.70;;;;;;;7.12;100.00;96528.06;10450122;28;20266;-61
2022/11/14 22:53:51;;;;;;;40.03;22.17;;;;;;;7.09;100.00;96528.34;10449593;28;20215;-60
2022/11/14 22:59:10;;;;;;;31.70;21.77;;;;;;;7.30;100.00;96541.19;10450245;28;20200;-61
2022/11/14 23:04:29;;;;;;;29.07;18.67;;;;;;;7.40;100.00;96523.75;10448529;28;20243;-60
2022/11/14 23:09:48;;;;;;;28.97;18.17;;;;;;;7.36;100.00;96527.59;10450419;28;20219;-60
2022/11/14 23:15:08;;;;;;;30.87;20.47;;;;;;;7.12;100.00;96522.84;10449264;28;20219;-62
2022/11/14 23:20:27;;;;;;;29.50;19.30;;;;;;;7.05;100.00;96532.19;10448942;28;20203;-62
2022/11/14 23:25:46;;;;;;;26.90;16.73;;;;;;;7.17;100.00;96523.28;10449262;28;20310;-61
2022/11/14 23:31:05;;;;;;;28.60;17.13;;;;;;;7.11;100.00;96526.44;10449059;28;20203;-61
2022/11/14 23:36:24;;;;;;;25.13;16.20;;;;;;;7.17;100.00;96520.66;10448664;28;20196;-61
2022/11/14 23:41:43;;;;;;;26.20;16.57;;;;;;;7.05;100.00;96509.56;10448657;28;20224;-61
2022/11/14 23:47:02;;;;;;;29.73;19.27;;;;;;;7.07;100.00;96510.25;10448828;28;20196;-61
2022/11/14 23:52:21;;;;;;;24.03;12.73;;;;;;;7.16;100.00;96502.56;10448546;28;20204;-62
2022/11/14 23:57:40;;;;;;;28.43;19.40;;;;;;;6.96;100.00;96529.44;10448575;28;20224;-61
